sensor_id;sensor_type;location;lat;lon;timestamp;P1;durP1;ratioP1;P2;durP2;ratioP2
74535;SDS011;63013;51.104;-115.370;2023-01-16T00:00:58;0.30;;;0.30;;
74535;SDS011;63013;51.104;-115.370;2023-01-16T00:03:30;0.40;;;0.30;;
74535;SDS011;63013;51.104;-115.370;2023-01-16T00:06:00;0.40;;;0.30;;
74535;SDS011;63013;51.104;-115.370;2023-01-16T00:08:41;0.30;;;0.20;;
74535;SDS011;63013;51.104;-115.370;2023-01-16T00:11:10;1.50;;;0.30;;
74535;SDS011;63013;51.104;-115.370;2023-01-16T00:13:38;0.30;;;0.30;;
74535;SDS011;63013;51.104;-115.370;2023-01-16T00:16:08;0.60;;;0.40;;
74535;SDS011;63013;51.104;-115.370;2023-01-16T00:18:36;0.40;;;0.20;;
74535;SDS011;63013;51.104;-115.370;2023-01-16T00:21:03;0.40;;;0.30;;
74535;SDS011;63013;51.104;-115.370;2023-01-16T00:23:31;1.00;;;0.20;;
74535;SDS011;63013;51.104;-115.370;2023-01-16T00:25:58;0.80;;;0.50;;
74535;SDS011;63013;51.104;-115.370;2023-01-16T00:28:26;0.70;;;0.70;;
74535;SDS011;63013;51.104;-115.370;2023-01-16T00:30:53;1.20;;;0.70;;
74535;SDS011;63013;51.104;-115.370;2023-01-16T00:33:20;0.80;;;0.40;;
74535;SDS011;63013;51.104;-115.370;2023-01-16T00:35:47;2.20;;;0.50;;
74535;SDS011;63013;51.104;-115.370;2023-01-16T00:38:15;0.90;;;0.60;;
74535;SDS011;63013;51.104;-115.370;2023-01-16T00:40:42;0.70;;;0.40;;
74535;SDS011;63013;51.104;-115.370;2023-01-16T00:43:09;0.60;;;0.40;;
74535;SDS011;63013;51.104;-115.370;2023-01-16T00:45:36;0.80;;;0.30;;
74535;SDS011;63013;51.104;-115.370;2023-01-16T00:48:06;0.60;;;0.50;;
74535;SDS011;63013;51.104;-115.370;2023-01-16T00:50:33;1.00;;;0.50;;
74535;SDS011;63013;51.104;-115.370;2023-01-16T00:53:11;0.90;;;0.50;;
74535;SDS011;63013;51.104;-115.370;2023-01-16T00:55:42;1.70;;;0.40;;
74535;SDS011;63013;51.104;-115.370;2023-01-16T00:58:13;1.40;;;0.70;;
74535;SDS011;63013;51.104;-115.370;2023-01-16T01:00:45;0.70;;;0.50;;
74535;SDS011;63013;51.104;-115.370;2023-01-16T01:03:15;1.00;;;0.60;;
74535;SDS011;63013;51.104;-115.370;2023-01-16T01:05:46;0.90;;;0.60;;
74535;SDS011;63013;51.104;-115.370;2023-01-16T01:08:13;0.60;;;0.50;;
74535;SDS011;63013;51.104;-115.370;2023-01-16T01:10:40;1.10;;;0.60;;
74535;SDS011;63013;51.104;-115.370;2023-01-16T01:13:07;1.70;;;0.50;;
74535;SDS011;63013;51.104;-115.370;2023-01-16T01:15:44;1.00;;;0.70;;
74535;SDS011;63013;51.104;-115.370;2023-01-16T01:18:11;0.80;;;0.50;;
74535;SDS011;63013;51.104;-115.370;2023-01-16T01:20:39;1.30;;;0.80;;
74535;SDS011;63013;51.104;-115.370;2023-01-16T01:23:13;0.90;;;0.60;;
74535;SDS011;63013;51.104;-115.370;2023-01-16T01:26:18;1.10;;;0.50;;
74535;SDS011;63013;51.104;-115.370;2023-01-16T01:28:46;0.50;;;0.50;;
74535;SDS011;63013;51.104;-115.370;2023-01-16T01:31:23;1.10;;;0.50;;
74535;SDS011;63013;51.104;-115.370;2023-01-16T01:33:50;1.10;;;0.60;;
74535;SDS011;63013;51.104;-115.370;2023-01-16T01:36:23;0.80;;;0.50;;
74535;SDS011;63013;51.104;-115.370;2023-01-16T01:38:59;1.40;;;0.60;;
74535;SDS011;63013;51.104;-115.370;2023-01-16T01:41:26;0.90;;;0.40;;
74535;SDS011;63013;51.104;-115.370;2023-01-16T01:47:23;0.60;;;0.40;;
74535;SDS011;63013;51.104;-115.370;2023-01-16T01:50:04;1.30;;;0.60;;
74535;SDS011;63013;51.104;-115.370;2023-01-16T01:52:42;0.90;;;0.60;;
74535;SDS011;63013;51.104;-115.370;2023-01-16T01:55:13;0.50;;;0.50;;
74535;SDS011;63013;51.104;-115.370;2023-01-16T01:57:53;1.70;;;0.50;;
74535;SDS011;63013;51.104;-115.370;2023-01-16T02:00:50;0.90;;;0.50;;
74535;SDS011;63013;51.104;-115.370;2023-01-16T02:03:29;0.60;;;0.40;;
74535;SDS011;63013;51.104;-115.370;2023-01-16T02:06:14;1.40;;;0.50;;
74535;SDS011;63013;51.104;-115.370;2023-01-16T02:08:57;0.70;;;0.40;;
74535;SDS011;63013;51.104;-115.370;2023-01-16T02:14:20;1.30;;;0.40;;
74535;SDS011;63013;51.104;-115.370;2023-01-16T02:17:15;2.20;;;0.50;;
74535;SDS011;63013;51.104;-115.370;2023-01-16T02:20:21;0.70;;;0.50;;
74535;SDS011;63013;51.104;-115.370;2023-01-16T02:27:09;1.20;;;0.50;;
74535;SDS011;63013;51.104;-115.370;2023-01-16T02:34:26;0.60;;;0.40;;
74535;SDS011;63013;51.104;-115.370;2023-01-16T02:44:05;9.60;;;2.30;;
74535;SDS011;63013;51.104;-115.370;2023-01-16T02:50:20;4.50;;;1.50;;
74535;SDS011;63013;51.104;-115.370;2023-01-16T02:54:05;3.60;;;1.30;;
74535;SDS011;63013;51.104;-115.370;2023-01-16T03:00:21;4.20;;;1.10;;
74535;SDS011;63013;51.104;-115.370;2023-01-16T03:03:01;3.40;;;1.00;;
74535;SDS011;63013;51.104;-115.370;2023-01-16T03:05:36;3.30;;;1.10;;
74535;SDS011;63013;51.104;-115.370;2023-01-16T03:11:36;3.10;;;1.40;;
74535;SDS011;63013;51.104;-115.370;2023-01-16T03:14:35;3.00;;;1.00;;
74535;SDS011;63013;51.104;-115.370;2023-01-16T03:24:03;1.90;;;0.80;;
74535;SDS011;63013;51.104;-115.370;2023-01-16T03:33:16;2.50;;;0.80;;
74535;SDS011;63013;51.104;-115.370;2023-01-16T03:36:05;2.10;;;0.80;;
74535;SDS011;63013;51.104;-115.370;2023-01-16T03:38:40;3.90;;;1.00;;
74535;SDS011;63013;51.104;-115.370;2023-01-16T03:41:29;2.90;;;0.70;;
74535;SDS011;63013;51.104;-115.370;2023-01-16T03:44:07;1.90;;;0.90;;
74535;SDS011;63013;51.104;-115.370;2023-01-16T03:47:08;1.90;;;0.80;;
74535;SDS011;63013;51.104;-115.370;2023-01-16T03:49:46;0.90;;;0.60;;
74535;SDS011;63013;51.104;-115.370;2023-01-16T03:52:23;2.00;;;0.90;;
74535;SDS011;63013;51.104;-115.370;2023-01-16T03:58:21;1.70;;;0.70;;
74535;SDS011;63013;51.104;-115.370;2023-01-16T04:01:36;2.00;;;0.90;;
74535;SDS011;63013;51.104;-115.370;2023-01-16T04:07:31;2.30;;;1.00;;
74535;SDS011;63013;51.104;-115.370;2023-01-16T04:10:15;2.10;;;0.80;;
74535;SDS011;63013;51.104;-115.370;2023-01-16T04:12:54;1.80;;;0.70;;
74535;SDS011;63013;51.104;-115.370;2023-01-16T04:15:42;2.90;;;0.70;;
74535;SDS011;63013;51.104;-115.370;2023-01-16T04:18:30;1.70;;;0.50;;
74535;SDS011;63013;51.104;-115.370;2023-01-16T04:21:06;1.70;;;0.70;;
74535;SDS011;63013;51.104;-115.370;2023-01-16T04:23:38;2.30;;;0.60;;
74535;SDS011;63013;51.104;-115.370;2023-01-16T04:26:18;3.40;;;0.70;;
74535;SDS011;63013;51.104;-115.370;2023-01-16T04:28:46;2.00;;;0.70;;
74535;SDS011;63013;51.104;-115.370;2023-01-16T04:31:24;2.00;;;0.70;;
74535;SDS011;63013;51.104;-115.370;2023-01-16T04:34:12;1.30;;;0.70;;
74535;SDS011;63013;51.104;-115.370;2023-01-16T04:36:42;1.70;;;0.70;;
74535;SDS011;63013;51.104;-115.370;2023-01-16T04:39:11;2.10;;;0.80;;
74535;SDS011;63013;51.104;-115.370;2023-01-16T04:41:41;2.90;;;0.70;;
74535;SDS011;63013;51.104;-115.370;2023-01-16T04:44:09;4.50;;;0.80;;
74535;SDS011;63013;51.104;-115.370;2023-01-16T04:46:40;1.90;;;0.70;;
74535;SDS011;63013;51.104;-115.370;2023-01-16T04:49:07;1.50;;;0.60;;
74535;SDS011;63013;51.104;-115.370;2023-01-16T04:51:45;2.00;;;0.70;;
74535;SDS011;63013;51.104;-115.370;2023-01-16T04:54:17;1.10;;;0.40;;
74535;SDS011;63013;51.104;-115.370;2023-01-16T04:57:02;1.90;;;0.70;;
74535;SDS011;63013;51.104;-115.370;2023-01-16T04:59:51;2.30;;;0.60;;
74535;SDS011;63013;51.104;-115.370;2023-01-16T05:02:33;1.30;;;0.80;;
74535;SDS011;63013;51.104;-115.370;2023-01-16T05:05:03;1.40;;;0.70;;
74535;SDS011;63013;51.104;-115.370;2023-01-16T05:08:01;1.60;;;0.60;;
74535;SDS011;63013;51.104;-115.370;2023-01-16T05:10:46;1.20;;;0.60;;
74535;SDS011;63013;51.104;-115.370;2023-01-16T05:13:14;1.00;;;0.70;;
74535;SDS011;63013;51.104;-115.370;2023-01-16T05:15:43;1.90;;;0.70;;
74535;SDS011;63013;51.104;-115.370;2023-01-16T05:18:36;2.90;;;0.80;;
74535;SDS011;63013;51.104;-115.370;2023-01-16T05:21:10;3.00;;;0.50;;
74535;SDS011;63013;51.104;-115.370;2023-01-16T05:23:50;2.10;;;0.70;;
74535;SDS011;63013;51.104;-115.370;2023-01-16T05:26:37;1.40;;;0.70;;
74535;SDS011;63013;51.104;-115.370;2023-01-16T05:29:04;1.90;;;0.70;;
74535;SDS011;63013;51.104;-115.370;2023-01-16T05:31:32;2.30;;;0.80;;
74535;SDS011;63013;51.104;-115.370;2023-01-16T05:33:59;3.10;;;0.60;;
74535;SDS011;63013;51.104;-115.370;2023-01-16T05:36:31;2.20;;;0.80;;
74535;SDS011;63013;51.104;-115.370;2023-01-16T05:39:02;3.80;;;1.00;;
74535;SDS011;63013;51.104;-115.370;2023-01-16T05:41:30;3.00;;;1.10;;
74535;SDS011;63013;51.104;-115.370;2023-01-16T05:44:10;2.70;;;0.90;;
74535;SDS011;63013;51.104;-115.370;2023-01-16T05:46:47;1.50;;;0.70;;
74535;SDS011;63013;51.104;-115.370;2023-01-16T05:49:17;1.70;;;0.70;;
74535;SDS011;63013;51.104;-115.370;2023-01-16T05:52:07;3.00;;;1.00;;
74535;SDS011;63013;51.104;-115.370;2023-01-16T05:54:38;1.90;;;0.70;;
74535;SDS011;63013;51.104;-115.370;2023-01-16T05:57:06;1.70;;;0.70;;
74535;SDS011;63013;51.104;-115.370;2023-01-16T05:59:46;2.30;;;0.80;;
74535;SDS011;63013;51.104;-115.370;2023-01-16T06:02:35;2.80;;;0.80;;
74535;SDS011;63013;51.104;-115.370;2023-01-16T06:05:49;2.90;;;0.80;;
74535;SDS011;63013;51.104;-115.370;2023-01-16T06:08:27;2.40;;;0.60;;
74535;SDS011;63013;51.104;-115.370;2023-01-16T06:10:57;1.20;;;0.60;;
74535;SDS011;63013;51.104;-115.370;2023-01-16T06:13:27;1.30;;;0.70;;
74535;SDS011;63013;51.104;-115.370;2023-01-16T06:15:58;2.10;;;0.60;;
74535;SDS011;63013;51.104;-115.370;2023-01-16T06:18:26;1.40;;;0.50;;
74535;SDS011;63013;51.104;-115.370;2023-01-16T06:21:02;2.10;;;0.60;;
74535;SDS011;63013;51.104;-115.370;2023-01-16T06:23:34;2.10;;;0.60;;
74535;SDS011;63013;51.104;-115.370;2023-01-16T06:26:31;1.80;;;0.70;;
74535;SDS011;63013;51.104;-115.370;2023-01-16T06:29:24;1.80;;;0.80;;
74535;SDS011;63013;51.104;-115.370;2023-01-16T06:32:24;2.50;;;0.80;;
74535;SDS011;63013;51.104;-115.370;2023-01-16T06:35:11;2.70;;;0.50;;
74535;SDS011;63013;51.104;-115.370;2023-01-16T06:38:00;2.10;;;0.60;;
74535;SDS011;63013;51.104;-115.370;2023-01-16T06:40:26;0.90;;;0.50;;
74535;SDS011;63013;51.104;-115.370;2023-01-16T06:43:12;3.20;;;0.60;;
74535;SDS011;63013;51.104;-115.370;2023-01-16T06:45:44;1.70;;;0.60;;
74535;SDS011;63013;51.104;-115.370;2023-01-16T06:48:12;1.60;;;0.60;;
74535;SDS011;63013;51.104;-115.370;2023-01-16T06:50:39;2.60;;;0.70;;
74535;SDS011;63013;51.104;-115.370;2023-01-16T06:53:15;1.20;;;0.40;;
74535;SDS011;63013;51.104;-115.370;2023-01-16T06:55:46;2.40;;;0.70;;
74535;SDS011;63013;51.104;-115.370;2023-01-16T06:58:14;2.90;;;0.70;;
74535;SDS011;63013;51.104;-115.370;2023-01-16T07:00:42;1.50;;;0.70;;
74535;SDS011;63013;51.104;-115.370;2023-01-16T07:03:13;1.90;;;0.80;;
74535;SDS011;63013;51.104;-115.370;2023-01-16T07:05:52;2.60;;;0.70;;
74535;SDS011;63013;51.104;-115.370;2023-01-16T07:08:28;2.80;;;0.60;;
74535;SDS011;63013;51.104;-115.370;2023-01-16T07:11:00;1.40;;;0.70;;
74535;SDS011;63013;51.104;-115.370;2023-01-16T07:13:38;2.00;;;0.50;;
74535;SDS011;63013;51.104;-115.370;2023-01-16T07:16:05;2.30;;;0.60;;
74535;SDS011;63013;51.104;-115.370;2023-01-16T07:18:53;1.30;;;0.50;;
74535;SDS011;63013;51.104;-115.370;2023-01-16T07:21:43;1.70;;;0.60;;
74535;SDS011;63013;51.104;-115.370;2023-01-16T07:24:34;1.50;;;0.50;;
74535;SDS011;63013;51.104;-115.370;2023-01-16T07:27:06;3.10;;;0.70;;
74535;SDS011;63013;51.104;-115.370;2023-01-16T07:29:35;1.80;;;0.70;;
74535;SDS011;63013;51.104;-115.370;2023-01-16T07:32:07;1.30;;;0.60;;
74535;SDS011;63013;51.104;-115.370;2023-01-16T07:34:38;1.70;;;0.60;;
74535;SDS011;63013;51.104;-115.370;2023-01-16T07:37:19;0.90;;;0.50;;
74535;SDS011;63013;51.104;-115.370;2023-01-16T07:40:19;1.10;;;0.60;;
74535;SDS011;63013;51.104;-115.370;2023-01-16T07:42:57;1.50;;;0.50;;
74535;SDS011;63013;51.104;-115.370;2023-01-16T07:45:33;1.50;;;0.60;;
74535;SDS011;63013;51.104;-115.370;2023-01-16T07:48:15;2.00;;;0.40;;
74535;SDS011;63013;51.104;-115.370;2023-01-16T07:50:50;1.50;;;0.50;;
74535;SDS011;63013;51.104;-115.370;2023-01-16T07:53:27;1.00;;;0.50;;
74535;SDS011;63013;51.104;-115.370;2023-01-16T07:55:59;1.80;;;0.60;;
74535;SDS011;63013;51.104;-115.370;2023-01-16T07:58:29;1.10;;;0.50;;
74535;SDS011;63013;51.104;-115.370;2023-01-16T08:01:10;1.90;;;0.50;;
74535;SDS011;63013;51.104;-115.370;2023-01-16T08:03:37;0.90;;;0.60;;
74535;SDS011;63013;51.104;-115.370;2023-01-16T08:06:05;1.50;;;0.50;;
74535;SDS011;63013;51.104;-115.370;2023-01-16T08:08:33;1.40;;;0.70;;
74535;SDS011;63013;51.104;-115.370;2023-01-16T08:11:10;2.00;;;0.60;;
74535;SDS011;63013;51.104;-115.370;2023-01-16T08:13:56;1.70;;;0.50;;
74535;SDS011;63013;51.104;-115.370;2023-01-16T08:16:24;2.80;;;0.80;;
74535;SDS011;63013;51.104;-115.370;2023-01-16T08:18:51;1.60;;;0.40;;
74535;SDS011;63013;51.104;-115.370;2023-01-16T08:21:19;2.00;;;0.40;;
74535;SDS011;63013;51.104;-115.370;2023-01-16T08:23:52;1.40;;;0.50;;
74535;SDS011;63013;51.104;-115.370;2023-01-16T08:26:29;1.20;;;0.50;;
74535;SDS011;63013;51.104;-115.370;2023-01-16T08:29:10;1.30;;;0.50;;
74535;SDS011;63013;51.104;-115.370;2023-01-16T08:31:38;1.30;;;0.40;;
74535;SDS011;63013;51.104;-115.370;2023-01-16T08:34:06;0.90;;;0.50;;
74535;SDS011;63013;51.104;-115.370;2023-01-16T08:36:54;1.00;;;0.50;;
74535;SDS011;63013;51.104;-115.370;2023-01-16T08:39:25;1.10;;;0.40;;
74535;SDS011;63013;51.104;-115.370;2023-01-16T08:42:02;2.40;;;0.50;;
74535;SDS011;63013;51.104;-115.370;2023-01-16T08:44:48;1.60;;;0.50;;
74535;SDS011;63013;51.104;-115.370;2023-01-16T08:48:26;1.40;;;0.60;;
74535;SDS011;63013;51.104;-115.370;2023-01-16T08:51:12;1.30;;;0.50;;
74535;SDS011;63013;51.104;-115.370;2023-01-16T08:53:55;1.80;;;0.50;;
74535;SDS011;63013;51.104;-115.370;2023-01-16T08:56:27;1.50;;;0.50;;
74535;SDS011;63013;51.104;-115.370;2023-01-16T08:59:06;1.10;;;0.60;;
74535;SDS011;63013;51.104;-115.370;2023-01-16T09:01:38;1.80;;;0.50;;
74535;SDS011;63013;51.104;-115.370;2023-01-16T09:07:15;1.90;;;0.40;;
74535;SDS011;63013;51.104;-115.370;2023-01-16T09:09:43;0.80;;;0.40;;
74535;SDS011;63013;51.104;-115.370;2023-01-16T09:12:28;1.90;;;0.50;;
74535;SDS011;63013;51.104;-115.370;2023-01-16T09:15:14;0.90;;;0.40;;
74535;SDS011;63013;51.104;-115.370;2023-01-16T09:17:42;1.20;;;0.40;;
74535;SDS011;63013;51.104;-115.370;2023-01-16T09:20:10;0.70;;;0.40;;
74535;SDS011;63013;51.104;-115.370;2023-01-16T09:22:57;1.00;;;0.50;;
74535;SDS011;63013;51.104;-115.370;2023-01-16T09:25:46;2.30;;;0.60;;
74535;SDS011;63013;51.104;-115.370;2023-01-16T09:28:15;1.00;;;0.50;;
74535;SDS011;63013;51.104;-115.370;2023-01-16T09:30:51;1.10;;;0.40;;
74535;SDS011;63013;51.104;-115.370;2023-01-16T09:33:36;1.20;;;0.50;;
74535;SDS011;63013;51.104;-115.370;2023-01-16T09:36:29;1.20;;;0.50;;
74535;SDS011;63013;51.104;-115.370;2023-01-16T09:39:00;0.70;;;0.40;;
74535;SDS011;63013;51.104;-115.370;2023-01-16T09:41:32;0.80;;;0.50;;
74535;SDS011;63013;51.104;-115.370;2023-01-16T09:44:32;1.20;;;0.50;;
74535;SDS011;63013;51.104;-115.370;2023-01-16T09:47:11;2.60;;;0.40;;
74535;SDS011;63013;51.104;-115.370;2023-01-16T09:49:50;0.90;;;0.50;;
74535;SDS011;63013;51.104;-115.370;2023-01-16T09:52:49;1.30;;;0.50;;
74535;SDS011;63013;51.104;-115.370;2023-01-16T09:55:53;1.20;;;0.40;;
74535;SDS011;63013;51.104;-115.370;2023-01-16T09:58:48;1.60;;;0.40;;
74535;SDS011;63013;51.104;-115.370;2023-01-16T10:01:36;1.30;;;0.50;;
74535;SDS011;63013;51.104;-115.370;2023-01-16T10:04:39;0.80;;;0.50;;
74535;SDS011;63013;51.104;-115.370;2023-01-16T10:10:17;0.90;;;0.40;;
74535;SDS011;63013;51.104;-115.370;2023-01-16T10:13:15;1.00;;;0.40;;
74535;SDS011;63013;51.104;-115.370;2023-01-16T10:19:11;1.10;;;0.30;;
74535;SDS011;63013;51.104;-115.370;2023-01-16T10:26:07;0.70;;;0.50;;
74535;SDS011;63013;51.104;-115.370;2023-01-16T10:35:35;1.00;;;0.50;;
74535;SDS011;63013;51.104;-115.370;2023-01-16T10:41:50;1.80;;;0.50;;
74535;SDS011;63013;51.104;-115.370;2023-01-16T10:44:52;1.20;;;0.40;;
74535;SDS011;63013;51.104;-115.370;2023-01-16T10:48:19;1.50;;;0.50;;
74535;SDS011;63013;51.104;-115.370;2023-01-16T10:51:06;2.90;;;0.40;;
74535;SDS011;63013;51.104;-115.370;2023-01-16T10:53:36;0.50;;;0.40;;
74535;SDS011;63013;51.104;-115.370;2023-01-16T10:56:05;1.60;;;0.60;;
74535;SDS011;63013;51.104;-115.370;2023-01-16T10:58:53;1.10;;;0.40;;
74535;SDS011;63013;51.104;-115.370;2023-01-16T11:01:23;0.70;;;0.50;;
74535;SDS011;63013;51.104;-115.370;2023-01-16T11:04:00;0.80;;;0.40;;
74535;SDS011;63013;51.104;-115.370;2023-01-16T11:06:29;0.80;;;0.50;;
74535;SDS011;63013;51.104;-115.370;2023-01-16T11:11:45;1.30;;;0.50;;
74535;SDS011;63013;51.104;-115.370;2023-01-16T11:14:43;0.40;;;0.30;;
74535;SDS011;63013;51.104;-115.370;2023-01-16T11:17:39;1.00;;;0.40;;
74535;SDS011;63013;51.104;-115.370;2023-01-16T11:20:36;1.00;;;0.40;;
74535;SDS011;63013;51.104;-115.370;2023-01-16T11:23:19;0.80;;;0.40;;
74535;SDS011;63013;51.104;-115.370;2023-01-16T11:25:51;0.60;;;0.50;;
74535;SDS011;63013;51.104;-115.370;2023-01-16T11:28:28;1.40;;;0.50;;
74535;SDS011;63013;51.104;-115.370;2023-01-16T11:31:00;0.70;;;0.50;;
74535;SDS011;63013;51.104;-115.370;2023-01-16T11:33:56;1.30;;;0.40;;
74535;SDS011;63013;51.104;-115.370;2023-01-16T11:36:32;0.60;;;0.40;;
74535;SDS011;63013;51.104;-115.370;2023-01-16T11:39:02;1.90;;;0.60;;
74535;SDS011;63013;51.104;-115.370;2023-01-16T11:41:37;0.70;;;0.40;;
74535;SDS011;63013;51.104;-115.370;2023-01-16T11:44:15;0.80;;;0.40;;
74535;SDS011;63013;51.104;-115.370;2023-01-16T11:47:04;1.40;;;0.50;;
74535;SDS011;63013;51.104;-115.370;2023-01-16T11:49:39;0.90;;;0.40;;
74535;SDS011;63013;51.104;-115.370;2023-01-16T11:52:14;1.60;;;0.40;;
74535;SDS011;63013;51.104;-115.370;2023-01-16T11:55:09;0.70;;;0.50;;
74535;SDS011;63013;51.104;-115.370;2023-01-16T11:58:19;0.70;;;0.40;;
74535;SDS011;63013;51.104;-115.370;2023-01-16T12:01:15;0.50;;;0.30;;
74535;SDS011;63013;51.104;-115.370;2023-01-16T12:09:57;0.50;;;0.30;;
74535;SDS011;63013;51.104;-115.370;2023-01-16T12:12:59;1.20;;;0.40;;
74535;SDS011;63013;51.104;-115.370;2023-01-16T12:16:02;0.60;;;0.40;;
74535;SDS011;63013;51.104;-115.370;2023-01-16T12:38:50;0.40;;;0.30;;
74535;SDS011;63013;51.104;-115.370;2023-01-16T12:42:16;0.70;;;0.30;;
74535;SDS011;63013;51.104;-115.370;2023-01-16T13:00:09;0.40;;;0.30;;
74535;SDS011;63013;51.104;-115.370;2023-01-16T13:03:00;0.70;;;0.40;;
74535;SDS011;63013;51.104;-115.370;2023-01-16T13:05:59;0.90;;;0.30;;
74535;SDS011;63013;51.104;-115.370;2023-01-16T13:08:53;1.30;;;0.50;;
74535;SDS011;63013;51.104;-115.370;2023-01-16T13:15:30;1.50;;;0.30;;
74535;SDS011;63013;51.104;-115.370;2023-01-16T13:18:27;0.30;;;0.30;;
74535;SDS011;63013;51.104;-115.370;2023-01-16T13:21:57;0.50;;;0.40;;
74535;SDS011;63013;51.104;-115.370;2023-01-16T13:28:25;0.90;;;0.30;;
74535;SDS011;63013;51.104;-115.370;2023-01-16T13:34:29;0.80;;;0.40;;
74535;SDS011;63013;51.104;-115.370;2023-01-16T13:50:30;0.80;;;0.30;;
74535;SDS011;63013;51.104;-115.370;2023-01-16T13:53:13;0.80;;;0.40;;
74535;SDS011;63013;51.104;-115.370;2023-01-16T13:55:42;1.70;;;0.60;;
74535;SDS011;63013;51.104;-115.370;2023-01-16T13:58:45;0.90;;;0.40;;
74535;SDS011;63013;51.104;-115.370;2023-01-16T14:04:34;0.90;;;0.30;;
74535;SDS011;63013;51.104;-115.370;2023-01-16T14:07:44;0.70;;;0.40;;
74535;SDS011;63013;51.104;-115.370;2023-01-16T14:10:39;1.00;;;0.40;;
74535;SDS011;63013;51.104;-115.370;2023-01-16T14:13:36;0.80;;;0.40;;
74535;SDS011;63013;51.104;-115.370;2023-01-16T14:16:31;0.80;;;0.40;;
74535;SDS011;63013;51.104;-115.370;2023-01-16T14:21:48;0.60;;;0.30;;
74535;SDS011;63013;51.104;-115.370;2023-01-16T14:24:54;0.80;;;0.30;;
74535;SDS011;63013;51.104;-115.370;2023-01-16T14:27:49;0.80;;;0.30;;
74535;SDS011;63013;51.104;-115.370;2023-01-16T14:30:45;1.10;;;0.30;;
74535;SDS011;63013;51.104;-115.370;2023-01-16T14:33:34;0.70;;;0.30;;
74535;SDS011;63013;51.104;-115.370;2023-01-16T14:36:13;0.60;;;0.30;;
74535;SDS011;63013;51.104;-115.370;2023-01-16T14:38:48;0.60;;;0.40;;
74535;SDS011;63013;51.104;-115.370;2023-01-16T14:41:31;0.40;;;0.30;;
74535;SDS011;63013;51.104;-115.370;2023-01-16T14:44:20;0.50;;;0.40;;
74535;SDS011;63013;51.104;-115.370;2023-01-16T14:53:58;0.60;;;0.30;;
74535;SDS011;63013;51.104;-115.370;2023-01-16T14:56:52;0.70;;;0.20;;
74535;SDS011;63013;51.104;-115.370;2023-01-16T15:05:41;0.50;;;0.30;;
74535;SDS011;63013;51.104;-115.370;2023-01-16T15:08:28;0.40;;;0.30;;
74535;SDS011;63013;51.104;-115.370;2023-01-16T15:11:29;0.40;;;0.30;;
74535;SDS011;63013;51.104;-115.370;2023-01-16T15:14:16;0.60;;;0.40;;
74535;SDS011;63013;51.104;-115.370;2023-01-16T15:20:28;0.40;;;0.30;;
74535;SDS011;63013;51.104;-115.370;2023-01-16T15:29:03;0.40;;;0.30;;
74535;SDS011;63013;51.104;-115.370;2023-01-16T15:31:38;0.50;;;0.30;;
74535;SDS011;63013;51.104;-115.370;2023-01-16T15:34:28;0.20;;;0.20;;
74535;SDS011;63013;51.104;-115.370;2023-01-16T15:36:58;0.20;;;0.20;;
74535;SDS011;63013;51.104;-115.370;2023-01-16T15:42:16;0.20;;;0.20;;
74535;SDS011;63013;51.104;-115.370;2023-01-16T15:45:14;0.30;;;0.20;;
74535;SDS011;63013;51.104;-115.370;2023-01-16T15:48:18;0.30;;;0.30;;
74535;SDS011;63013;51.104;-115.370;2023-01-16T15:51:11;0.40;;;0.40;;
74535;SDS011;63013;51.104;-115.370;2023-01-16T15:53:44;0.30;;;0.30;;
74535;SDS011;63013;51.104;-115.370;2023-01-16T15:59:23;0.20;;;0.20;;
74535;SDS011;63013;51.104;-115.370;2023-01-16T16:02:28;0.40;;;0.30;;
74535;SDS011;63013;51.104;-115.370;2023-01-16T16:05:10;0.30;;;0.30;;
74535;SDS011;63013;51.104;-115.370;2023-01-16T16:07:40;0.20;;;0.20;;
74535;SDS011;63013;51.104;-115.370;2023-01-16T16:10:13;0.30;;;0.30;;
74535;SDS011;63013;51.104;-115.370;2023-01-16T16:13:04;0.40;;;0.30;;
74535;SDS011;63013;51.104;-115.370;2023-01-16T16:18:59;0.30;;;0.30;;
74535;SDS011;63013;51.104;-115.370;2023-01-16T16:21:33;0.30;;;0.30;;
74535;SDS011;63013;51.104;-115.370;2023-01-16T16:24:32;0.20;;;0.20;;
74535;SDS011;63013;51.104;-115.370;2023-01-16T16:27:06;0.20;;;0.20;;
74535;SDS011;63013;51.104;-115.370;2023-01-16T16:29:37;0.20;;;0.20;;
74535;SDS011;63013;51.104;-115.370;2023-01-16T16:32:14;0.30;;;0.30;;
74535;SDS011;63013;51.104;-115.370;2023-01-16T16:34:55;0.40;;;0.30;;
74535;SDS011;63013;51.104;-115.370;2023-01-16T16:37:24;0.50;;;0.20;;
74535;SDS011;63013;51.104;-115.370;2023-01-16T16:40:13;0.40;;;0.20;;
74535;SDS011;63013;51.104;-115.370;2023-01-16T16:42:54;0.30;;;0.20;;
74535;SDS011;63013;51.104;-115.370;2023-01-16T16:45:30;0.20;;;0.20;;
74535;SDS011;63013;51.104;-115.370;2023-01-16T16:48:29;0.20;;;0.20;;
74535;SDS011;63013;51.104;-115.370;2023-01-16T16:51:25;0.40;;;0.30;;
74535;SDS011;63013;51.104;-115.370;2023-01-16T16:54:10;0.70;;;0.30;;
74535;SDS011;63013;51.104;-115.370;2023-01-16T16:56:57;0.30;;;0.30;;
74535;SDS011;63013;51.104;-115.370;2023-01-16T16:59:27;0.30;;;0.30;;
74535;SDS011;63013;51.104;-115.370;2023-01-16T17:02:02;0.30;;;0.30;;
74535;SDS011;63013;51.104;-115.370;2023-01-16T17:04:35;0.30;;;0.30;;
74535;SDS011;63013;51.104;-115.370;2023-01-16T17:07:12;0.50;;;0.30;;
74535;SDS011;63013;51.104;-115.370;2023-01-16T17:09:40;0.40;;;0.40;;
74535;SDS011;63013;51.104;-115.370;2023-01-16T17:12:16;0.50;;;0.30;;
74535;SDS011;63013;51.104;-115.370;2023-01-16T17:15:07;0.50;;;0.20;;
74535;SDS011;63013;51.104;-115.370;2023-01-16T17:17:41;0.30;;;0.30;;
74535;SDS011;63013;51.104;-115.370;2023-01-16T17:20:24;0.30;;;0.30;;
74535;SDS011;63013;51.104;-115.370;2023-01-16T17:22:52;0.30;;;0.30;;
74535;SDS011;63013;51.104;-115.370;2023-01-16T17:25:21;0.40;;;0.30;;
74535;SDS011;63013;51.104;-115.370;2023-01-16T17:27:51;0.30;;;0.30;;
74535;SDS011;63013;51.104;-115.370;2023-01-16T17:30:22;0.30;;;0.20;;
74535;SDS011;63013;51.104;-115.370;2023-01-16T17:35:44;0.30;;;0.30;;
74535;SDS011;63013;51.104;-115.370;2023-01-16T17:38:25;0.30;;;0.30;;
74535;SDS011;63013;51.104;-115.370;2023-01-16T17:40:53;0.90;;;0.40;;
74535;SDS011;63013;51.104;-115.370;2023-01-16T17:43:40;2.20;;;0.40;;
74535;SDS011;63013;51.104;-115.370;2023-01-16T17:46:26;15.20;;;0.50;;
74535;SDS011;63013;51.104;-115.370;2023-01-16T17:48:53;11.30;;;0.50;;
74535;SDS011;63013;51.104;-115.370;2023-01-16T17:51:20;7.80;;;0.60;;
74535;SDS011;63013;51.104;-115.370;2023-01-16T17:53:51;17.90;;;0.80;;
74535;SDS011;63013;51.104;-115.370;2023-01-16T17:56:20;10.20;;;0.90;;
74535;SDS011;63013;51.104;-115.370;2023-01-16T17:58:48;8.80;;;0.70;;
74535;SDS011;63013;51.104;-115.370;2023-01-16T18:01:23;12.60;;;0.60;;
74535;SDS011;63013;51.104;-115.370;2023-01-16T18:03:59;8.50;;;0.70;;
74535;SDS011;63013;51.104;-115.370;2023-01-16T18:06:37;4.20;;;0.50;;
74535;SDS011;63013;51.104;-115.370;2023-01-16T18:09:09;5.40;;;0.50;;
74535;SDS011;63013;51.104;-115.370;2023-01-16T18:11:39;6.40;;;0.60;;
74535;SDS011;63013;51.104;-115.370;2023-01-16T18:14:28;7.10;;;0.40;;
74535;SDS011;63013;51.104;-115.370;2023-01-16T18:17:16;3.20;;;0.50;;
74535;SDS011;63013;51.104;-115.370;2023-01-16T18:19:48;4.00;;;0.80;;
74535;SDS011;63013;51.104;-115.370;2023-01-16T18:22:19;4.00;;;0.70;;
74535;SDS011;63013;51.104;-115.370;2023-01-16T18:24:46;3.70;;;0.40;;
74535;SDS011;63013;51.104;-115.370;2023-01-16T18:27:16;7.80;;;0.60;;